sensor_id;sensor_type;location;lat;lon;timestamp;P1;durP1;ratioP1;P2;durP2;ratioP2
13816;SDS011;6979;52.116;5.286;2022-11-15T00:00:39;20.57;;;16.37;;
13816;SDS011;6979;52.116;5.286;2022-11-15T00:03:25;17.57;;;13.90;;
13816;SDS011;6979;52.116;5.286;2022-11-15T00:06:13;21.77;;;15.63;;
13816;SDS011;6979;52.116;5.286;2022-11-15T00:08:59;20.03;;;15.67;;
13816;SDS011;6979;52.116;5.286;2022-11-15T00:11:44;19.67;;;14.87;;
13816;SDS011;6979;52.116;5.286;2022-11-15T00:14:30;21.23;;;15.50;;
13816;SDS011;6979;52.116;5.286;2022-11-15T00:17:15;21.33;;;16.30;;
13816;SDS011;6979;52.116;5.286;2022-11-15T00:20:01;21.60;;;16.33;;
13816;SDS011;6979;52.116;5.286;2022-11-15T00:22:48;20.63;;;14.73;;
13816;SDS011;6979;52.116;5.286;2022-11-15T00:25:33;21.60;;;15.37;;
13816;SDS011;6979;52.116;5.286;2022-11-15T00:28:19;22.57;;;14.57;;
13816;SDS011;6979;52.116;5.286;2022-11-15T00:31:05;25.57;;;19.13;;
13816;SDS011;6979;52.116;5.286;2022-11-15T00:33:52;24.20;;;17.80;;
13816;SDS011;6979;52.116;5.286;2022-11-15T00:36:37;24.27;;;17.63;;
13816;SDS011;6979;52.116;5.286;2022-11-15T00:39:24;19.97;;;15.90;;
13816;SDS011;6979;52.116;5.286;2022-11-15T00:42:09;28.50;;;19.43;;
13816;SDS011;6979;52.116;5.286;2022-11-15T00:44:55;28.77;;;18.37;;
13816;SDS011;6979;52.116;5.286;2022-11-15T00:47:40;22.50;;;16.90;;
13816;SDS011;6979;52.116;5.286;2022-11-15T00:50:29;22.93;;;16.27;;
13816;SDS011;6979;52.116;5.286;2022-11-15T00:53:14;24.47;;;17.17;;
13816;SDS011;6979;52.116;5.286;2022-11-15T00:56:01;22.60;;;18.03;;
13816;SDS011;6979;52.116;5.286;2022-11-15T00:58:46;23.97;;;16.90;;
13816;SDS011;6979;52.116;5.286;2022-11-15T01:01:32;23.33;;;17.10;;
13816;SDS011;6979;52.116;5.286;2022-11-15T01:04:17;31.00;;;19.83;;
13816;SDS011;6979;52.116;5.286;2022-11-15T01:07:03;28.07;;;18.53;;
13816;SDS011;6979;52.116;5.286;2022-11-15T01:09:48;27.70;;;20.07;;
13816;SDS011;6979;52.116;5.286;2022-11-15T01:12:35;28.00;;;18.60;;
13816;SDS011;6979;52.116;5.286;2022-11-15T01:15:21;27.93;;;16.87;;
13816;SDS011;6979;52.116;5.286;2022-11-15T01:18:06;27.60;;;19.43;;
13816;SDS011;6979;52.116;5.286;2022-11-15T01:20:52;26.57;;;18.70;;
13816;SDS011;6979;52.116;5.286;2022-11-15T01:23:37;24.63;;;18.77;;
13816;SDS011;6979;52.116;5.286;2022-11-15T01:26:23;24.70;;;18.63;;
13816;SDS011;6979;52.116;5.286;2022-11-15T01:29:10;25.37;;;18.13;;
13816;SDS011;6979;52.116;5.286;2022-11-15T01:31:56;24.53;;;17.43;;
13816;SDS011;6979;52.116;5.286;2022-11-15T01:34:42;23.87;;;18.60;;
13816;SDS011;6979;52.116;5.286;2022-11-15T01:37:27;20.80;;;16.93;;
13816;SDS011;6979;52.116;5.286;2022-11-15T01:40:13;25.07;;;19.67;;
13816;SDS011;6979;52.116;5.286;2022-11-15T01:42:58;24.80;;;17.77;;
13816;SDS011;6979;52.116;5.286;2022-11-15T01:45:45;23.83;;;18.77;;
13816;SDS011;6979;52.116;5.286;2022-11-15T01:48:34;25.53;;;19.27;;
13816;SDS011;6979;52.116;5.286;2022-11-15T01:51:21;25.40;;;19.50;;
13816;SDS011;6979;52.116;5.286;2022-11-15T01:54:11;29.20;;;20.63;;
13816;SDS011;6979;52.116;5.286;2022-11-15T01:57:01;22.77;;;18.80;;
13816;SDS011;6979;52.116;5.286;2022-11-15T01:59:51;25.70;;;20.53;;
13816;SDS011;6979;52.116;5.286;2022-11-15T02:02:38;24.20;;;21.57;;
13816;SDS011;6979;52.116;5.286;2022-11-15T02:05:23;24.67;;;19.37;;
13816;SDS011;6979;52.116;5.286;2022-11-15T02:08:09;24.83;;;20.30;;
13816;SDS011;6979;52.116;5.286;2022-11-15T02:11:04;25.63;;;20.23;;
13816;SDS011;6979;52.116;5.286;2022-11-15T02:13:49;24.73;;;21.07;;
13816;SDS011;6979;52.116;5.286;2022-11-15T02:16:38;25.80;;;20.57;;
13816;SDS011;6979;52.116;5.286;2022-11-15T02:19:40;25.97;;;21.03;;
13816;SDS011;6979;52.116;5.286;2022-11-15T02:22:59;29.33;;;21.57;;
13816;SDS011;6979;52.116;5.286;2022-11-15T02:26:05;29.43;;;21.50;;
13816;SDS011;6979;52.116;5.286;2022-11-15T02:29:05;28.53;;;21.10;;
13816;SDS011;6979;52.116;5.286;2022-11-15T02:31:57;28.37;;;19.97;;
13816;SDS011;6979;52.116;5.286;2022-11-15T02:34:50;22.87;;;19.27;;
13816;SDS011;6979;52.116;5.286;2022-11-15T02:37:42;27.00;;;20.97;;
13816;SDS011;6979;52.116;5.286;2022-11-15T02:40:34;23.63;;;20.17;;
13816;SDS011;6979;52.116;5.286;2022-11-15T02:43:28;26.70;;;21.47;;
13816;SDS011;6979;52.116;5.286;2022-11-15T02:46:36;28.23;;;23.07;;
13816;SDS011;6979;52.116;5.286;2022-11-15T02:49:45;23.40;;;20.47;;
13816;SDS011;6979;52.116;5.286;2022-11-15T02:52:32;23.03;;;20.47;;
13816;SDS011;6979;52.116;5.286;2022-11-15T02:55:28;21.93;;;19.37;;
13816;SDS011;6979;52.116;5.286;2022-11-15T02:58:19;23.13;;;19.60;;
13816;SDS011;6979;52.116;5.286;2022-11-15T03:01:20;28.33;;;20.73;;
13816;SDS011;6979;52.116;5.286;2022-11-15T03:04:18;27.37;;;21.23;;
13816;SDS011;6979;52.116;5.286;2022-11-15T03:07:13;23.43;;;18.77;;
13816;SDS011;6979;52.116;5.286;2022-11-15T03:10:05;24.57;;;19.63;;
13816;SDS011;6979;52.116;5.286;2022-11-15T03:12:54;24.73;;;20.40;;
13816;SDS011;6979;52.116;5.286;2022-11-15T03:15:43;26.17;;;22.37;;
13816;SDS011;6979;52.116;5.286;2022-11-15T03:18:35;22.47;;;19.60;;
13816;SDS011;6979;52.116;5.286;2022-11-15T03:21:23;24.23;;;21.63;;
13816;SDS011;6979;52.116;5.286;2022-11-15T03:24:10;23.60;;;19.97;;
13816;SDS011;6979;52.116;5.286;2022-11-15T03:26:59;23.27;;;20.73;;
13816;SDS011;6979;52.116;5.286;2022-11-15T03:29:47;22.13;;;19.27;;
13816;SDS011;6979;52.116;5.286;2022-11-15T03:32:37;20.40;;;18.37;;
13816;SDS011;6979;52.116;5.286;2022-11-15T03:35:27;27.10;;;21.20;;
13816;SDS011;6979;52.116;5.286;2022-11-15T03:38:19;23.67;;;21.07;;
13816;SDS011;6979;52.116;5.286;2022-11-15T03:41:11;22.13;;;19.37;;
13816;SDS011;6979;52.116;5.286;2022-11-15T03:44:03;21.87;;;19.27;;
13816;SDS011;6979;52.116;5.286;2022-11-15T03:46:55;22.07;;;19.67;;
13816;SDS011;6979;52.116;5.286;2022-11-15T03:49:46;20.13;;;17.10;;
13816;SDS011;6979;52.116;5.286;2022-11-15T03:52:36;21.17;;;18.97;;
13816;SDS011;6979;52.116;5.286;2022-11-15T03:55:21;23.43;;;19.13;;
13816;SDS011;6979;52.116;5.286;2022-11-15T03:58:08;19.73;;;17.77;;
13816;SDS011;6979;52.116;5.286;2022-11-15T04:00:53;21.40;;;19.10;;
13816;SDS011;6979;52.116;5.286;2022-11-15T04:03:39;18.63;;;16.70;;
13816;SDS011;6979;52.116;5.286;2022-11-15T04:06:24;20.20;;;18.13;;
13816;SDS011;6979;52.116;5.286;2022-11-15T04:09:10;20.30;;;17.63;;
13816;SDS011;6979;52.116;5.286;2022-11-15T04:11:55;19.73;;;17.60;;
13816;SDS011;6979;52.116;5.286;2022-11-15T04:14:42;17.67;;;15.93;;
13816;SDS011;6979;52.116;5.286;2022-11-15T04:17:49;18.13;;;16.27;;
13816;SDS011;6979;52.116;5.286;2022-11-15T04:20:35;19.20;;;17.20;;
13816;SDS011;6979;52.116;5.286;2022-11-15T04:23:38;19.20;;;17.10;;
13816;SDS011;6979;52.116;5.286;2022-11-15T04:26:46;18.47;;;16.63;;
13816;SDS011;6979;52.116;5.286;2022-11-15T04:29:31;18.87;;;17.13;;
13816;SDS011;6979;52.116;5.286;2022-11-15T04:32:21;16.43;;;14.77;;
13816;SDS011;6979;52.116;5.286;2022-11-15T04:35:06;16.00;;;14.50;;
13816;SDS011;6979;52.116;5.286;2022-11-15T04:37:52;19.67;;;17.67;;
13816;SDS011;6979;52.116;5.286;2022-11-15T04:40:38;17.80;;;15.93;;
13816;SDS011;6979;52.116;5.286;2022-11-15T04:43:24;18.23;;;16.53;;
13816;SDS011;6979;52.116;5.286;2022-11-15T04:46:09;19.20;;;17.33;;
13816;SDS011;6979;52.116;5.286;2022-11-15T04:48:56;20.07;;;18.17;;
13816;SDS011;6979;52.116;5.286;2022-11-15T04:51:41;17.77;;;16.00;;
13816;SDS011;6979;52.116;5.286;2022-11-15T04:54:27;19.77;;;17.70;;
13816;SDS011;6979;52.116;5.286;2022-11-15T04:57:12;18.73;;;16.73;;
13816;SDS011;6979;52.116;5.286;2022-11-15T04:59:59;16.50;;;14.83;;
13816;SDS011;6979;52.116;5.286;2022-11-15T05:02:44;18.43;;;16.63;;
13816;SDS011;6979;52.116;5.286;2022-11-15T05:05:45;20.03;;;17.80;;
13816;SDS011;6979;52.116;5.286;2022-11-15T05:08:30;18.10;;;16.20;;
13816;SDS011;6979;52.116;5.286;2022-11-15T05:11:16;16.53;;;15.00;;
13816;SDS011;6979;52.116;5.286;2022-11-15T05:14:01;16.60;;;14.93;;
13816;SDS011;6979;52.116;5.286;2022-11-15T05:16:47;15.17;;;13.77;;
13816;SDS011;6979;52.116;5.286;2022-11-15T05:19:32;15.83;;;14.33;;
13816;SDS011;6979;52.116;5.286;2022-11-15T05:22:19;17.20;;;15.53;;
13816;SDS011;6979;52.116;5.286;2022-11-15T05:25:05;17.17;;;15.47;;
13816;SDS011;6979;52.116;5.286;2022-11-15T05:27:51;15.40;;;14.10;;
13816;SDS011;6979;52.116;5.286;2022-11-15T05:30:36;16.13;;;14.63;;
13816;SDS011;6979;52.116;5.286;2022-11-15T05:33:22;16.27;;;14.67;;
13816;SDS011;6979;52.116;5.286;2022-11-15T05:36:09;17.13;;;15.43;;
13816;SDS011;6979;52.116;5.286;2022-11-15T05:39:01;15.17;;;13.67;;
13816;SDS011;6979;52.116;5.286;2022-11-15T05:41:47;15.03;;;13.60;;
13816;SDS011;6979;52.116;5.286;2022-11-15T05:44:36;16.27;;;13.87;;
13816;SDS011;6979;52.116;5.286;2022-11-15T05:47:24;14.53;;;13.23;;
13816;SDS011;6979;52.116;5.286;2022-11-15T05:50:12;16.23;;;14.73;;
13816;SDS011;6979;52.116;5.286;2022-11-15T05:53:02;15.47;;;14.03;;
13816;SDS011;6979;52.116;5.286;2022-11-15T05:55:49;18.33;;;16.43;;
13816;SDS011;6979;52.116;5.286;2022-11-15T05:58:34;15.27;;;13.90;;
13816;SDS011;6979;52.116;5.286;2022-11-15T06:01:21;16.40;;;14.90;;
13816;SDS011;6979;52.116;5.286;2022-11-15T06:04:06;15.70;;;14.27;;
13816;SDS011;6979;52.116;5.286;2022-11-15T06:06:52;17.97;;;16.10;;
13816;SDS011;6979;52.116;5.286;2022-11-15T06:09:37;18.43;;;16.50;;
13816;SDS011;6979;52.116;5.286;2022-11-15T06:12:24;18.37;;;16.67;;
13816;SDS011;6979;52.116;5.286;2022-11-15T06:15:10;17.30;;;15.50;;
13816;SDS011;6979;52.116;5.286;2022-11-15T06:17:55;16.97;;;15.33;;
13816;SDS011;6979;52.116;5.286;2022-11-15T06:20:42;20.13;;;18.23;;
13816;SDS011;6979;52.116;5.286;2022-11-15T06:23:27;17.17;;;15.67;;
13816;SDS011;6979;52.116;5.286;2022-11-15T06:26:13;16.60;;;15.00;;
13816;SDS011;6979;52.116;5.286;2022-11-15T06:29:00;17.70;;;16.00;;
13816;SDS011;6979;52.116;5.286;2022-11-15T06:31:47;18.20;;;16.40;;
13816;SDS011;6979;52.116;5.286;2022-11-15T06:34:32;16.77;;;15.17;;
13816;SDS011;6979;52.116;5.286;2022-11-15T06:37:19;18.37;;;16.53;;
13816;SDS011;6979;52.116;5.286;2022-11-15T06:40:05;17.20;;;15.77;;
13816;SDS011;6979;52.116;5.286;2022-11-15T06:42:51;16.40;;;14.83;;
13816;SDS011;6979;52.116;5.286;2022-11-15T06:45:43;16.93;;;15.23;;
13816;SDS011;6979;52.116;5.286;2022-11-15T06:48:29;16.10;;;14.70;;
13816;SDS011;6979;52.116;5.286;2022-11-15T06:51:15;16.53;;;14.83;;
13816;SDS011;6979;52.116;5.286;2022-11-15T06:54:01;18.87;;;16.97;;
13816;SDS011;6979;52.116;5.286;2022-11-15T06:56:46;16.23;;;14.77;;
13816;SDS011;6979;52.116;5.286;2022-11-15T06:59:32;17.93;;;16.13;;
13816;SDS011;6979;52.116;5.286;2022-11-15T07:02:18;18.63;;;16.90;;
13816;SDS011;6979;52.116;5.286;2022-11-15T07:05:04;15.85;;;14.45;;
13816;SDS011;6979;52.116;5.286;2022-11-15T07:07:50;16.67;;;15.27;;
13816;SDS011;6979;52.116;5.286;2022-11-15T07:10:37;17.50;;;15.80;;
13816;SDS011;6979;52.116;5.286;2022-11-15T07:13:23;15.67;;;14.10;;
13816;SDS011;6979;52.116;5.286;2022-11-15T07:16:09;14.73;;;13.33;;
13816;SDS011;6979;52.116;5.286;2022-11-15T07:18:56;16.60;;;15.20;;
13816;SDS011;6979;52.116;5.286;2022-11-15T07:21:41;15.93;;;14.50;;
13816;SDS011;6979;52.116;5.286;2022-11-15T07:24:27;16.77;;;15.20;;
13816;SDS011;6979;52.116;5.286;2022-11-15T07:27:13;16.27;;;14.70;;
13816;SDS011;6979;52.116;5.286;2022-11-15T07:29:58;16.63;;;15.13;;
13816;SDS011;6979;52.116;5.286;2022-11-15T07:32:44;16.80;;;15.17;;
13816;SDS011;6979;52.116;5.286;2022-11-15T07:35:31;15.40;;;13.97;;
13816;SDS011;6979;52.116;5.286;2022-11-15T07:38:16;14.90;;;13.60;;
13816;SDS011;6979;52.116;5.286;2022-11-15T07:41:04;14.97;;;13.53;;
13816;SDS011;6979;52.116;5.286;2022-11-15T07:43:50;15.30;;;13.90;;
13816;SDS011;6979;52.116;5.286;2022-11-15T07:46:36;16.83;;;13.93;;
13816;SDS011;6979;52.116;5.286;2022-11-15T07:49:22;14.50;;;13.03;;
13816;SDS011;6979;52.116;5.286;2022-11-15T07:52:09;13.80;;;12.40;;
13816;SDS011;6979;52.116;5.286;2022-11-15T07:54:54;15.43;;;13.43;;
13816;SDS011;6979;52.116;5.286;2022-11-15T07:57:40;13.80;;;12.40;;
13816;SDS011;6979;52.116;5.286;2022-11-15T08:00:25;13.67;;;12.37;;
13816;SDS011;6979;52.116;5.286;2022-11-15T08:03:12;13.73;;;12.50;;
13816;SDS011;6979;52.116;5.286;2022-11-15T08:05:58;14.43;;;13.00;;
13816;SDS011;6979;52.116;5.286;2022-11-15T08:08:44;14.03;;;12.63;;
13816;SDS011;6979;52.116;5.286;2022-11-15T08:11:32;11.90;;;10.80;;
13816;SDS011;6979;52.116;5.286;2022-11-15T08:14:17;14.23;;;12.80;;
13816;SDS011;6979;52.116;5.286;2022-11-15T08:17:04;13.43;;;12.20;;
13816;SDS011;6979;52.116;5.286;2022-11-15T08:19:50;15.30;;;12.47;;
13816;SDS011;6979;52.116;5.286;2022-11-15T08:22:35;12.93;;;11.70;;
13816;SDS011;6979;52.116;5.286;2022-11-15T08:25:22;13.40;;;12.07;;
13816;SDS011;6979;52.116;5.286;2022-11-15T08:28:10;13.23;;;11.90;;
13816;SDS011;6979;52.116;5.286;2022-11-15T08:30:55;12.00;;;10.83;;
13816;SDS011;6979;52.116;5.286;2022-11-15T08:33:41;11.77;;;10.60;;
13816;SDS011;6979;52.116;5.286;2022-11-15T08:36:27;12.13;;;10.97;;
13816;SDS011;6979;52.116;5.286;2022-11-15T08:39:12;11.43;;;10.33;;
13816;SDS011;6979;52.116;5.286;2022-11-15T08:41:59;12.30;;;9.93;;
13816;SDS011;6979;52.116;5.286;2022-11-15T08:44:44;12.03;;;10.90;;
13816;SDS011;6979;52.116;5.286;2022-11-15T08:47:30;12.10;;;10.87;;
13816;SDS011;6979;52.116;5.286;2022-11-15T08:50:15;11.30;;;10.20;;
13816;SDS011;6979;52.116;5.286;2022-11-15T08:53:04;12.67;;;10.50;;
13816;SDS011;6979;52.116;5.286;2022-11-15T08:55:50;11.57;;;10.43;;
13816;SDS011;6979;52.116;5.286;2022-11-15T08:58:37;12.70;;;11.53;;
13816;SDS011;6979;52.116;5.286;2022-11-15T09:01:22;14.97;;;13.30;;
13816;SDS011;6979;52.116;5.286;2022-11-15T09:04:07;13.27;;;11.93;;
13816;SDS011;6979;52.116;5.286;2022-11-15T09:06:53;12.70;;;10.23;;
13816;SDS011;6979;52.116;5.286;2022-11-15T09:09:38;10.60;;;9.50;;
13816;SDS011;6979;52.116;5.286;2022-11-15T09:12:24;11.53;;;10.30;;
13816;SDS011;6979;52.116;5.286;2022-11-15T09:15:11;12.07;;;10.87;;
13816;SDS011;6979;52.116;5.286;2022-11-15T09:17:57;12.10;;;10.93;;
13816;SDS011;6979;52.116;5.286;2022-11-15T09:20:43;10.80;;;9.70;;
13816;SDS011;6979;52.116;5.286;2022-11-15T09:23:28;12.73;;;10.27;;
13816;SDS011;6979;52.116;5.286;2022-11-15T09:26:14;9.40;;;8.60;;
13816;SDS011;6979;52.116;5.286;2022-11-15T09:29:00;11.43;;;10.27;;
13816;SDS011;6979;52.116;5.286;2022-11-15T09:31:47;9.50;;;8.67;;
13816;SDS011;6979;52.116;5.286;2022-11-15T09:34:32;9.60;;;8.63;;
13816;SDS011;6979;52.116;5.286;2022-11-15T09:37:18;9.27;;;8.47;;
13816;SDS011;6979;52.116;5.286;2022-11-15T09:40:04;10.83;;;9.83;;
13816;SDS011;6979;52.116;5.286;2022-11-15T09:42:58;9.70;;;8.80;;
13816;SDS011;6979;52.116;5.286;2022-11-15T09:45:53;8.73;;;7.73;;
13816;SDS011;6979;52.116;5.286;2022-11-15T09:48:51;11.97;;;9.10;;
13816;SDS011;6979;52.116;5.286;2022-11-15T09:51:59;7.77;;;7.03;;
13816;SDS011;6979;52.116;5.286;2022-11-15T09:54:28;6.97;;;6.40;;
13816;SDS011;6979;52.116;5.286;2022-11-15T09:57:02;8.20;;;7.40;;
13816;SDS011;6979;52.116;5.286;2022-11-15T09:59:42;7.67;;;6.80;;
13816;SDS011;6979;52.116;5.286;2022-11-15T10:02:18;7.57;;;6.77;;
13816;SDS011;6979;52.116;5.286;2022-11-15T10:05:04;6.73;;;6.10;;
13816;SDS011;6979;52.116;5.286;2022-11-15T10:07:37;6.43;;;5.93;;
13816;SDS011;6979;52.116;5.286;2022-11-15T10:10:14;7.13;;;6.53;;
13816;SDS011;6979;52.116;5.286;2022-11-15T10:12:48;6.10;;;5.60;;
13816;SDS011;6979;52.116;5.286;2022-11-15T10:15:18;7.90;;;6.00;;
13816;SDS011;6979;52.116;5.286;2022-11-15T10:18:01;6.70;;;6.10;;
13816;SDS011;6979;52.116;5.286;2022-11-15T10:20:38;9.13;;;5.77;;
13816;SDS011;6979;52.116;5.286;2022-11-15T10:23:11;6.50;;;5.90;;
13816;SDS011;6979;52.116;5.286;2022-11-15T10:25:40;7.10;;;5.70;;
13816;SDS011;6979;52.116;5.286;2022-11-15T10:28:09;5.37;;;4.97;;
13816;SDS011;6979;52.116;5.286;2022-11-15T10:30:41;5.47;;;4.57;;
13816;SDS011;6979;52.116;5.286;2022-11-15T10:33:11;4.47;;;3.97;;
13816;SDS011;6979;52.116;5.286;2022-11-15T10:36:18;5.10;;;4.43;;
13816;SDS011;6979;52.116;5.286;2022-11-15T10:38:54;4.47;;;4.03;;
13816;SDS011;6979;52.116;5.286;2022-11-15T10:41:29;4.20;;;3.60;;
13816;SDS011;6979;52.116;5.286;2022-11-15T10:44:07;3.63;;;3.40;;
13816;SDS011;6979;52.116;5.286;2022-11-15T10:46:39;3.90;;;3.60;;
13816;SDS011;6979;52.116;5.286;2022-11-15T10:49:12;3.70;;;3.50;;
13816;SDS011;6979;52.116;5.286;2022-11-15T10:51:42;3.37;;;3.07;;
13816;SDS011;6979;52.116;5.286;2022-11-15T10:54:12;4.70;;;3.70;;
13816;SDS011;6979;52.116;5.286;2022-11-15T10:56:41;3.50;;;3.20;;
13816;SDS011;6979;52.116;5.286;2022-11-15T10:59:14;3.37;;;2.87;;
13816;SDS011;6979;52.116;5.286;2022-11-15T11:01:46;3.33;;;3.00;;
13816;SDS011;6979;52.116;5.286;2022-11-15T11:04:14;3.93;;;2.93;;
13816;SDS011;6979;52.116;5.286;2022-11-15T11:06:48;3.30;;;3.00;;
13816;SDS011;6979;52.116;5.286;2022-11-15T11:09:22;3.23;;;2.77;;
13816;SDS011;6979;52.116;5.286;2022-11-15T11:11:53;3.13;;;2.13;;
13816;SDS011;6979;52.116;5.286;2022-11-15T11:14:22;2.43;;;2.13;;
13816;SDS011;6979;52.116;5.286;2022-11-15T11:16:52;2.60;;;2.40;;
13816;SDS011;6979;52.116;5.286;2022-11-15T11:19:30;2.20;;;2.00;;
13816;SDS011;6979;52.116;5.286;2022-11-15T11:22:12;2.57;;;2.33;;
13816;SDS011;6979;52.116;5.286;2022-11-15T11:24:47;2.00;;;1.90;;
13816;SDS011;6979;52.116;5.286;2022-11-15T11:27:24;2.00;;;1.80;;
13816;SDS011;6979;52.116;5.286;2022-11-15T11:30:06;2.30;;;2.10;;
13816;SDS011;6979;52.116;5.286;2022-11-15T11:32:49;2.97;;;1.90;;
13816;SDS011;6979;52.116;5.286;2022-11-15T11:35:32;3.80;;;1.97;;
13816;SDS011;6979;52.116;5.286;2022-11-15T11:38:11;2.17;;;1.70;;
13816;SDS011;6979;52.116;5.286;2022-11-15T11:40:51;5.37;;;2.23;;
13816;SDS011;6979;52.116;5.286;2022-11-15T11:43:27;2.07;;;1.80;;
13816;SDS011;6979;52.116;5.286;2022-11-15T11:46:13;1.70;;;1.60;;
13816;SDS011;6979;52.116;5.286;2022-11-15T11:48:52;2.40;;;1.63;;
13816;SDS011;6979;52.116;5.286;2022-11-15T11:51:24;1.93;;;1.33;;
13816;SDS011;6979;52.116;5.286;2022-11-15T11:53:57;2.87;;;1.87;;
13816;SDS011;6979;52.116;5.286;2022-11-15T11:56:27;2.07;;;1.80;;
13816;SDS011;6979;52.116;5.286;2022-11-15T11:58:56;2.60;;;1.40;;
13816;SDS011;6979;52.116;5.286;2022-11-15T12:01:29;2.73;;;1.23;;
13816;SDS011;6979;52.116;5.286;2022-11-15T12:04:01;2.17;;;1.50;;
13816;SDS011;6979;52.116;5.286;2022-11-15T12:06:35;2.43;;;1.63;;
13816;SDS011;6979;52.116;5.286;2022-11-15T12:09:12;1.80;;;1.53;;
13816;SDS011;6979;52.116;5.286;2022-11-15T12:11:48;2.77;;;1.90;;
13816;SDS011;6979;52.116;5.286;2022-11-15T12:17:07;1.77;;;1.50;;
13816;SDS011;6979;52.116;5.286;2022-11-15T12:19:36;1.63;;;1.53;;
13816;SDS011;6979;52.116;5.286;2022-11-15T12:22:04;2.30;;;1.73;;
13816;SDS011;6979;52.116;5.286;2022-11-15T12:24:38;2.37;;;1.60;;
13816;SDS011;6979;52.116;5.286;2022-11-15T12:27:13;2.17;;;1.60;;
13816;SDS011;6979;52.116;5.286;2022-11-15T12:29:44;5.10;;;1.70;;
13816;SDS011;6979;52.116;5.286;2022-11-15T12:32:18;4.23;;;1.53;;
13816;SDS011;6979;52.116;5.286;2022-11-15T12:34:51;3.10;;;1.40;;
13816;SDS011;6979;52.116;5.286;2022-11-15T12:37:32;2.27;;;1.33;;
13816;SDS011;6979;52.116;5.286;2022-11-15T12:43:03;1.47;;;1.10;;
13816;SDS011;6979;52.116;5.286;2022-11-15T12:45:37;2.27;;;1.40;;
13816;SDS011;6979;52.116;5.286;2022-11-15T12:51:22;3.03;;;1.20;;
13816;SDS011;6979;52.116;5.286;2022-11-15T12:57:23;2.77;;;1.40;;
13816;SDS011;6979;52.116;5.286;2022-11-15T12:59:58;2.13;;;1.43;;
13816;SDS011;6979;52.116;5.286;2022-11-15T13:02:29;5.37;;;1.90;;
13816;SDS011;6979;52.116;5.286;2022-11-15T13:08:06;1.67;;;1.20;;
13816;SDS011;6979;52.116;5.286;2022-11-15T13:10:33;1.77;;;1.57;;
13816;SDS011;6979;52.116;5.286;2022-11-15T13:13:02;4.63;;;2.03;;
13816;SDS011;6979;52.116;5.286;2022-11-15T13:15:34;3.13;;;2.30;;
13816;SDS011;6979;52.116;5.286;2022-11-15T13:18:31;2.77;;;1.43;;
13816;SDS011;6979;52.116;5.286;2022-11-15T13:21:00;5.27;;;2.00;;
13816;SDS011;6979;52.116;5.286;2022-11-15T13:23:51;2.97;;;1.33;;
13816;SDS011;6979;52.116;5.286;2022-11-15T13:26:19;3.10;;;1.57;;
13816;SDS011;6979;52.116;5.286;2022-11-15T13:28:49;1.83;;;1.23;;
13816;SDS011;6979;52.116;5.286;2022-11-15T13:31:27;3.40;;;1.90;;
13816;SDS011;6979;52.116;5.286;2022-11-15T13:33:58;3.37;;;2.03;;
13816;SDS011;6979;52.116;5.286;2022-11-15T13:36:28;3.03;;;1.60;;
13816;SDS011;6979;52.116;5.286;2022-11-15T13:38:59;2.23;;;1.53;;
13816;SDS011;6979;52.116;5.286;2022-11-15T13:41:28;3.57;;;1.70;;
13816;SDS011;6979;52.116;5.286;2022-11-15T13:43:58;2.10;;;1.40;;
13816;SDS011;6979;52.116;5.286;2022-11-15T13:46:26;1.97;;;1.40;;
13816;SDS011;6979;52.116;5.286;2022-11-15T13:48:55;1.63;;;1.50;;
13816;SDS011;6979;52.116;5.286;2022-11-15T13:51:25;1.80;;;1.60;;
13816;SDS011;6979;52.116;5.286;2022-11-15T13:54:00;1.80;;;1.70;;
13816;SDS011;6979;52.116;5.286;2022-11-15T13:56:32;2.60;;;1.40;;
13816;SDS011;6979;52.116;5.286;2022-11-15T13:59:07;2.23;;;2.03;;
13816;SDS011;6979;52.116;5.286;2022-11-15T14:01:35;2.23;;;1.87;;
13816;SDS011;6979;52.116;5.286;2022-11-15T14:04:02;2.43;;;1.60;;
13816;SDS011;6979;52.116;5.286;2022-11-15T14:06:29;1.70;;;1.50;;
13816;SDS011;6979;52.116;5.286;2022-11-15T14:08:58;2.27;;;1.70;;
13816;SDS011;6979;52.116;5.286;2022-11-15T14:11:28;4.60;;;1.70;;
13816;SDS011;6979;52.116;5.286;2022-11-15T14:14:01;2.20;;;1.60;;
13816;SDS011;6979;52.116;5.286;2022-11-15T14:16:38;3.33;;;1.67;;
13816;SDS011;6979;52.116;5.286;2022-11-15T14:19:09;3.00;;;1.43;;
13816;SDS011;6979;52.116;5.286;2022-11-15T14:21:37;1.50;;;1.40;;
13816;SDS011;6979;52.116;5.286;2022-11-15T14:24:36;2.27;;;1.67;;
13816;SDS011;6979;52.116;5.286;2022-11-15T14:27:16;1.93;;;1.53;;
13816;SDS011;6979;52.116;5.286;2022-11-15T14:29:46;1.90;;;1.80;;
13816;SDS011;6979;52.116;5.286;2022-11-15T14:32:14;3.17;;;1.80;;
13816;SDS011;6979;52.116;5.286;2022-11-15T14:34:42;2.43;;;1.70;;
13816;SDS011;6979;52.116;5.286;2022-11-15T14:37:16;2.30;;;1.70;;
13816;SDS011;6979;52.116;5.286;2022-11-15T14:39:46;1.60;;;1.50;;
13816;SDS011;6979;52.116;5.286;2022-11-15T14:42:13;2.80;;;1.80;;
13816;SDS011;6979;52.116;5.286;2022-11-15T14:44:40;1.90;;;1.80;;
13816;SDS011;6979;52.116;5.286;2022-11-15T14:47:07;1.50;;;1.50;;
13816;SDS011;6979;52.116;5.286;2022-11-15T14:49:34;3.73;;;1.53;;
13816;SDS011;6979;52.116;5.286;2022-11-15T14:52:02;3.70;;;2.13;;
13816;SDS011;6979;52.116;5.286;2022-11-15T14:54:39;2.67;;;1.60;;
13816;SDS011;6979;52.116;5.286;2022-11-15T14:57:06;2.27;;;1.70;;
13816;SDS011;6979;52.116;5.286;2022-11-15T14:59:33;2.00;;;1.70;;
13816;SDS011;6979;52.116;5.286;2022-11-15T15:01:59;1.87;;;1.40;;
13816;SDS011;6979;52.116;5.286;2022-11-15T15:04:26;2.00;;;1.20;;
13816;SDS011;6979;52.116;5.286;2022-11-15T15:06:53;1.70;;;1.30;;
13816;SDS011;6979;52.116;5.286;2022-11-15T15:09:20;4.33;;;1.80;;
13816;SDS011;6979;52.116;5.286;2022-11-15T15:11:48;2.23;;;1.47;;
13816;SDS011;6979;52.116;5.286;2022-11-15T15:14:14;2.50;;;1.50;;
13816;SDS011;6979;52.116;5.286;2022-11-15T15:16:41;1.70;;;1.33;;
13816;SDS011;6979;52.116;5.286;2022-11-15T15:19:08;1.67;;;1.13;;
13816;SDS011;6979;52.116;5.286;2022-11-15T15:21:35;1.30;;;1.20;;
13816;SDS011;6979;52.116;5.286;2022-11-15T15:24:02;1.90;;;1.10;;
13816;SDS011;6979;52.116;5.286;2022-11-15T15:26:29;1.63;;;1.53;;
13816;SDS011;6979;52.116;5.286;2022-11-15T15:29:00;2.33;;;1.20;;
13816;SDS011;6979;52.116;5.286;2022-11-15T15:31:26;1.73;;;1.20;;
13816;SDS011;6979;52.116;5.286;2022-11-15T15:33:53;2.40;;;1.53;;
13816;SDS011;6979;52.116;5.286;2022-11-15T15:36:20;1.67;;;1.57;;
13816;SDS011;6979;52.116;5.286;2022-11-15T15:38:47;2.23;;;1.60;;
13816;SDS011;6979;52.116;5.286;2022-11-15T15:41:14;1.60;;;0.93;;
13816;SDS011;6979;52.116;5.286;2022-11-15T15:43:42;1.50;;;1.10;;
13816;SDS011;6979;52.116;5.286;2022-11-15T15:46:11;2.03;;;1.33;;
13816;SDS011;6979;52.116;5.286;2022-11-15T15:48:40;1.97;;;1.60;;
13816;SDS011;6979;52.116;5.286;2022-11-15T15:51:07;0.93;;;0.80;;
13816;SDS011;6979;52.116;5.286;2022-11-15T15:53:34;1.67;;;1.33;;
13816;SDS011;6979;52.116;5.286;2022-11-15T15:56:01;1.43;;;1.13;;
13816;SDS011;6979;52.116;5.286;2022-11-15T15:58:28;1.63;;;1.20;;
13816;SDS011;6979;52.116;5.286;2022-11-15T16:00:54;1.73;;;1.03;;
13816;SDS011;6979;52.116;5.286;2022-11-15T16:03:23;2.50;;;1.23;;
13816;SDS011;6979;52.116;5.286;2022-11-15T16:05:49;2.20;;;1.10;;
13816;SDS011;6979;52.116;5.286;2022-11-15T16:08:17;0.83;;;0.83;;
13816;SDS011;6979;52.116;5.286;2022-11-15T16:10:45;2.13;;;1.20;;
13816;SDS011;6979;52.116;5.286;2022-11-15T16:13:12;1.20;;;1.13;;
13816;SDS011;6979;52.116;5.286;2022-11-15T16:15:39;2.77;;;2.13;;
13816;SDS011;6979;52.116;5.286;2022-11-15T16:18:09;2.53;;;1.63;;
13816;SDS011;6979;52.116;5.286;2022-11-15T16:20:43;1.60;;;1.20;;
13816;SDS011;6979;52.116;5.286;2022-11-15T16:23:11;3.00;;;1.57;;
13816;SDS011;6979;52.116;5.286;2022-11-15T16:25:41;1.77;;;1.40;;